Time;durP1;ratioP1;P1;durP2;ratioP2;P2;SDS_P1;SDS_P2;PMS_P1;PMS_P2;Temp;Humidity;BMP_temperature;BMP_pressure;BME280_temperature;BME280_humidity;BME280_pressure;Samples;Min_cycle;Max_cycle;Signal;HPM_P1;HPM_P2
2023/04/02 00:01:25;;;;;;;0.50;0.40;;;7.50;99.90;;;;;;5099695;28;20934;-77
2023/04/02 00:04:25;;;;;;;0.37;0.20;;;7.40;99.90;;;;;;5094467;28;20542;-77
2023/04/02 00:07:16;;;;;;;0.40;0.20;;;7.40;99.90;;;;;;5045543;28;21016;-77
2023/04/02 00:09:43;;;;;;;0.43;0.30;;;7.30;99.90;;;;;;5100782;28;20487;-78
2023/04/02 00:12:18;;;;;;;0.40;0.30;;;7.30;99.90;;;;;;5104943;28;20494;-77
2023/04/02 00:14:48;;;;;;;0.40;0.30;;;7.30;99.90;;;;;;5105694;28;20434;-77
2023/04/02 00:17:15;;;;;;;0.40;0.30;;;7.30;99.90;;;;;;5101135;28;20471;-77
2023/04/02 00:19:48;;;;;;;0.40;0.30;;;7.30;99.90;;;;;;5111438;28;20505;-77
2023/04/02 00:22:18;;;;;;;0.40;0.30;;;7.30;99.90;;;;;;5110698;28;21155;-78
2023/04/02 00:24:45;;;;;;;0.40;0.20;;;7.20;99.90;;;;;;5100716;28;20515;-77
2023/04/02 00:27:14;;;;;;;0.43;0.30;;;7.30;99.90;;;;;;5109439;28;20527;-78
2023/04/02 00:29:47;;;;;;;1.27;0.30;;;7.30;99.90;;;;;;5108847;28;20465;-79
2023/04/02 00:32:21;;;;;;;2.10;0.30;;;7.30;99.90;;;;;;5108804;28;20563;-78
2023/04/02 00:34:49;;;;;;;0.50;0.30;;;7.30;99.90;;;;;;5103664;28;20545;-77
2023/04/02 00:37:22;;;;;;;0.80;0.20;;;7.20;99.90;;;;;;5102777;28;20503;-78
2023/04/02 00:39:51;;;;;;;0.40;0.30;;;7.20;99.90;;;;;;5107234;28;20541;-78
2023/04/02 00:42:19;;;;;;;1.17;0.30;;;7.30;99.90;;;;;;5102576;28;20442;-77
2023/04/02 00:44:49;;;;;;;0.50;0.30;;;7.30;99.90;;;;;;5103480;28;20476;-78
2023/04/02 00:47:21;;;;;;;0.30;0.20;;;7.20;99.90;;;;;;5108261;28;20451;-77
2023/04/02 00:49:54;;;;;;;0.40;0.30;;;7.10;99.90;;;;;;5103405;28;20504;-77
2023/04/02 00:52:26;;;;;;;0.40;0.30;;;7.10;99.90;;;;;;5099539;28;20569;-76
2023/04/02 00:54:59;;;;;;;0.50;0.30;;;7.10;99.90;;;;;;5106152;28;20439;-77
2023/04/02 00:57:29;;;;;;;0.50;0.20;;;7.10;99.90;;;;;;5105973;28;20514;-77
2023/04/02 01:00:04;;;;;;;0.57;0.30;;;7.20;99.90;;;;;;5100681;28;20450;-78
2023/04/02 01:02:34;;;;;;;0.50;0.30;;;7.20;99.90;;;;;;5107225;28;20519;-77
2023/04/02 01:05:04;;;;;;;0.93;0.40;;;7.20;99.90;;;;;;5106945;28;20895;-76
2023/04/02 01:07:56;;;;;;;0.40;0.20;;;7.20;99.90;;;;;;5106744;28;20462;-78
2023/04/02 01:10:44;;;;;;;0.40;0.20;;;7.20;99.90;;;;;;5101608;28;20445;-76
2023/04/02 01:13:24;;;;;;;0.40;0.20;;;7.30;99.90;;;;;;5105990;28;21045;-78
2023/04/02 01:16:00;;;;;;;0.40;0.20;;;7.30;99.90;;;;;;5102483;28;20510;-76
2023/04/02 01:18:38;;;;;;;0.47;0.30;;;7.30;99.90;;;;;;5108699;28;20507;-76
2023/04/02 01:21:24;;;;;;;0.40;0.30;;;7.30;99.90;;;;;;5107712;28;20454;-77
2023/04/02 01:24:00;;;;;;;0.30;0.20;;;7.30;99.90;;;;;;5106761;28;20450;-77
2023/04/02 01:26:44;;;;;;;0.30;0.20;;;7.30;99.90;;;;;;5102186;28;20561;-78
2023/04/02 01:29:15;;;;;;;0.30;0.30;;;7.30;99.90;;;;;;5099122;28;20503;-76
2023/04/02 01:31:44;;;;;;;0.30;0.20;;;7.40;99.90;;;;;;5107952;28;20451;-77
2023/04/02 01:34:14;;;;;;;0.40;0.20;;;7.40;99.90;;;;;;5097865;28;20886;-79
2023/04/02 01:36:47;;;;;;;0.50;0.30;;;7.40;99.90;;;;;;5107192;28;20909;-79
2023/04/02 01:39:28;;;;;;;0.60;0.30;;;7.40;99.90;;;;;;5106043;28;20511;-78
2023/04/02 01:42:03;;;;;;;2.80;0.40;;;7.40;99.90;;;;;;5105227;28;20922;-78
2023/04/02 01:44:39;;;;;;;0.60;0.30;;;7.40;99.90;;;;;;5098848;28;20484;-77
2023/04/02 01:47:11;;;;;;;0.40;0.30;;;7.40;99.90;;;;;;5106601;28;20442;-78
2023/04/02 01:49:41;;;;;;;0.53;0.30;;;7.40;99.90;;;;;;5107989;28;20447;-78
2023/04/02 01:52:09;;;;;;;0.40;0.30;;;7.30;99.90;;;;;;5107412;28;20981;-78
2023/04/02 01:54:37;;;;;;;0.50;0.33;;;7.30;99.90;;;;;;5104408;28;20857;-79
2023/04/02 01:57:05;;;;;;;0.40;0.30;;;7.30;99.90;;;;;;5104885;27;20462;-79
2023/04/02 01:59:34;;;;;;;1.03;0.30;;;7.30;99.90;;;;;;5106291;28;20986;-78
2023/04/02 02:02:03;;;;;;;0.80;0.50;;;7.40;99.90;;;;;;5106246;28;20462;-77
2023/04/02 02:04:31;;;;;;;0.40;0.30;;;7.30;99.90;;;;;;5107338;28;20530;-78
2023/04/02 02:07:00;;;;;;;0.87;0.30;;;7.30;99.90;;;;;;5106954;28;20826;-78
2023/04/02 02:09:30;;;;;;;1.33;0.33;;;7.30;99.90;;;;;;5098445;28;20516;-78
2023/04/02 02:11:58;;;;;;;0.30;0.20;;;7.30;99.90;;;;;;5098661;28;20465;-77
2023/04/02 02:14:28;;;;;;;0.60;0.30;;;7.30;99.90;;;;;;5100876;28;20533;-78
2023/04/02 02:16:58;;;;;;;0.40;0.27;;;7.30;99.90;;;;;;5109968;28;20454;-79
2023/04/02 02:19:32;;;;;;;0.40;0.30;;;7.40;99.90;;;;;;5104851;28;20978;-77
2023/04/02 02:22:07;;;;;;;0.40;0.20;;;7.30;99.90;;;;;;5106429;28;20451;-78
2023/04/02 02:24:36;;;;;;;0.40;0.30;;;7.30;99.90;;;;;;5105467;28;21146;-77
2023/04/02 02:27:31;;;;;;;1.30;0.40;;;7.30;99.90;;;;;;5101945;28;20535;-78
2023/04/02 02:30:04;;;;;;;0.40;0.30;;;7.30;99.90;;;;;;5099179;28;20463;-78
2023/04/02 02:32:35;;;;;;;0.50;0.30;;;7.30;99.90;;;;;;5106036;28;20482;-77
2023/04/02 02:35:06;;;;;;;1.33;0.40;;;7.40;99.90;;;;;;5105140;28;20454;-79
2023/04/02 02:37:39;;;;;;;0.50;0.30;;;7.40;99.90;;;;;;5103888;28;20533;-77
2023/04/02 02:40:12;;;;;;;0.40;0.30;;;7.40;99.90;;;;;;5098577;28;20531;-78
2023/04/02 02:42:46;;;;;;;0.40;0.40;;;7.40;99.90;;;;;;5098838;28;20483;-78
2023/04/02 02:45:17;;;;;;;2.13;0.30;;;7.40;99.90;;;;;;5101504;28;20443;-77
2023/04/02 02:47:47;;;;;;;1.10;0.30;;;7.40;99.90;;;;;;5105553;28;20519;-78
2023/04/02 02:50:20;;;;;;;0.40;0.20;;;7.40;99.90;;;;;;5101419;28;21204;-78
2023/04/02 02:52:52;;;;;;;1.73;0.30;;;7.40;99.90;;;;;;5105981;28;20555;-76
2023/04/02 02:55:22;;;;;;;0.40;0.30;;;7.40;99.90;;;;;;5106801;28;20503;-77
2023/04/02 02:58:00;;;;;;;2.73;0.30;;;7.40;99.90;;;;;;5105195;28;20931;-77
2023/04/02 03:00:27;;;;;;;0.57;0.40;;;7.40;99.90;;;;;;5103345;28;20450;-77
2023/04/02 03:02:57;;;;;;;0.30;0.20;;;7.50;99.90;;;;;;5104522;28;20880;-77
2023/04/02 03:05:28;;;;;;;0.63;0.57;;;7.40;99.90;;;;;;5100067;28;20499;-79
2023/04/02 03:08:00;;;;;;;0.83;0.30;;;7.40;99.90;;;;;;5105451;28;20491;-77
2023/04/02 03:10:34;;;;;;;0.53;0.30;;;7.40;99.90;;;;;;5103430;28;20604;-78
2023/04/02 03:13:10;;;;;;;0.70;0.40;;;7.40;99.90;;;;;;5105272;28;20485;-77
2023/04/02 03:15:47;;;;;;;0.67;0.40;;;7.50;99.90;;;;;;5106400;28;20442;-78
2023/04/02 03:18:33;;;;;;;0.50;0.30;;;7.50;99.90;;;;;;5105633;28;20947;-78
2023/04/02 03:21:06;;;;;;;0.50;0.33;;;7.50;99.90;;;;;;5103761;28;20446;-77
2023/04/02 03:23:37;;;;;;;0.63;0.30;;;7.50;99.90;;;;;;5104487;28;20511;-77
2023/04/02 03:26:08;;;;;;;0.40;0.30;;;7.50;99.90;;;;;;5102205;28;20462;-77
2023/04/02 03:28:43;;;;;;;0.40;0.20;;;7.50;99.90;;;;;;5103296;28;20951;-78
2023/04/02 03:31:15;;;;;;;0.40;0.30;;;7.40;99.90;;;;;;5103221;28;20499;-77
2023/04/02 03:33:47;;;;;;;1.23;0.30;;;7.40;99.90;;;;;;5104569;28;20490;-78
2023/04/02 03:36:21;;;;;;;0.40;0.33;;;7.30;99.90;;;;;;5095431;28;20446;-78
2023/04/02 03:38:51;;;;;;;1.40;0.27;;;7.30;99.90;;;;;;5099563;28;20947;-77
2023/04/02 03:41:22;;;;;;;1.07;0.30;;;7.30;99.90;;;;;;5105775;28;20478;-77
2023/04/02 03:43:54;;;;;;;0.40;0.30;;;7.20;99.90;;;;;;5103950;28;20930;-78
2023/04/02 03:46:29;;;;;;;0.40;0.30;;;7.20;99.90;;;;;;5105573;28;20438;-78
2023/04/02 03:49:01;;;;;;;1.27;0.20;;;7.20;99.90;;;;;;5106230;28;21191;-79
2023/04/02 03:51:34;;;;;;;0.30;0.20;;;7.20;99.90;;;;;;5107548;28;20462;-78
2023/04/02 03:54:02;;;;;;;0.40;0.30;;;7.20;99.90;;;;;;5098394;28;20475;-76
2023/04/02 03:56:38;;;;;;;0.40;0.27;;;7.30;99.90;;;;;;5108727;28;20442;-76
2023/04/02 03:59:12;;;;;;;0.80;0.40;;;7.20;99.90;;;;;;5108950;28;20536;-79
2023/04/02 04:01:45;;;;;;;0.40;0.30;;;7.20;99.90;;;;;;5108916;28;20470;-77
2023/04/02 04:04:17;;;;;;;1.10;0.30;;;7.30;99.90;;;;;;5109154;28;20450;-77
2023/04/02 04:06:49;;;;;;;0.40;0.37;;;7.30;99.90;;;;;;5110186;28;20786;-76
2023/04/02 04:09:22;;;;;;;0.37;0.20;;;7.30;99.90;;;;;;5106011;28;20454;-77
2023/04/02 04:11:52;;;;;;;0.40;0.20;;;7.30;99.90;;;;;;5109458;28;20571;-76
2023/04/02 04:14:21;;;;;;;0.40;0.30;;;7.30;99.90;;;;;;5108597;28;20494;-78
2023/04/02 04:16:53;;;;;;;0.43;0.33;;;7.30;99.90;;;;;;5108527;28;20443;-78
2023/04/02 04:19:28;;;;;;;0.90;0.30;;;7.30;99.90;;;;;;5109448;28;20447;-78
2023/04/02 04:22:09;;;;;;;4.63;1.70;;;7.40;99.90;;;;;;5108797;28;20515;-76
2023/04/02 04:24:38;;;;;;;7.60;0.40;;;7.40;99.90;;;;;;5101751;28;20533;-77
2023/04/02 04:27:11;;;;;;;1.23;0.40;;;7.50;99.90;;;;;;5108247;28;20496;-78
2023/04/02 04:29:46;;;;;;;0.40;0.20;;;7.50;99.90;;;;;;5105957;28;21225;-77
2023/04/02 04:32:25;;;;;;;1.07;0.30;;;7.50;99.90;;;;;;5106232;28;20434;-76
2023/04/02 04:34:59;;;;;;;0.40;0.20;;;7.50;99.90;;;;;;5104626;28;20517;-78
2023/04/02 04:37:33;;;;;;;0.50;0.33;;;7.50;99.90;;;;;;5106732;28;20473;-78
2023/04/02 04:40:06;;;;;;;0.40;0.30;;;7.50;99.90;;;;;;5099921;28;20461;-78
2023/04/02 04:42:36;;;;;;;0.40;0.23;;;7.50;99.90;;;;;;5106039;28;20790;-78
2023/04/02 04:45:09;;;;;;;0.67;0.40;;;7.50;99.90;;;;;;5102528;28;20454;-77
2023/04/02 04:47:41;;;;;;;0.40;0.30;;;7.50;99.90;;;;;;5101288;28;20663;-78
2023/04/02 04:50:16;;;;;;;0.50;0.30;;;7.50;99.90;;;;;;5106228;28;20507;-77
2023/04/02 04:52:44;;;;;;;0.40;0.30;;;7.60;99.90;;;;;;5106828;28;20442;-76
2023/04/02 04:55:34;;;;;;;0.97;0.40;;;7.60;99.90;;;;;;5096240;27;20521;-76
2023/04/02 04:58:08;;;;;;;0.40;0.30;;;7.60;99.90;;;;;;5106446;28;20462;-78
2023/04/02 05:00:43;;;;;;;1.10;0.30;;;7.60;99.90;;;;;;5108908;28;20514;-77
2023/04/02 05:03:17;;;;;;;0.73;0.30;;;7.60;99.90;;;;;;5105880;28;20995;-77
2023/04/02 05:05:46;;;;;;;0.40;0.40;;;7.60;99.90;;;;;;5101687;28;20507;-77
2023/04/02 05:08:19;;;;;;;1.30;0.30;;;7.60;99.90;;;;;;5108410;28;20443;-78
2023/04/02 05:10:50;;;;;;;2.00;0.40;;;7.60;99.90;;;;;;5105509;28;20461;-77
2023/04/02 05:13:23;;;;;;;0.60;0.40;;;7.60;99.90;;;;;;5104134;28;20490;-77
2023/04/02 05:15:58;;;;;;;0.50;0.30;;;7.70;99.90;;;;;;5108077;28;20439;-77
2023/04/02 05:18:31;;;;;;;3.03;0.40;;;7.70;99.90;;;;;;5106909;28;20450;-77
2023/04/02 05:21:06;;;;;;;0.50;0.40;;;7.70;99.90;;;;;;5107724;28;20443;-77
2023/04/02 05:23:37;;;;;;;1.17;1.17;;;7.70;99.90;;;;;;5097063;28;20450;-79
2023/04/02 05:26:08;;;;;;;1.77;1.67;;;7.80;99.90;;;;;;5107520;27;20511;-78
2023/04/02 05:28:40;;;;;;;4.67;2.33;;;7.80;99.90;;;;;;5100197;28;20447;-78
2023/04/02 05:31:12;;;;;;;11.73;9.10;;;7.80;99.90;;;;;;5100241;28;20531;-77
2023/04/02 05:33:44;;;;;;;0.87;0.67;;;7.90;99.90;;;;;;5100074;28;20488;-78
2023/04/02 05:36:19;;;;;;;0.50;0.47;;;7.90;99.90;;;;;;5104133;28;20551;-77
2023/04/02 05:38:48;;;;;;;1.40;0.60;;;7.90;99.90;;;;;;5104607;28;20545;-78
2023/04/02 05:41:22;;;;;;;0.87;0.87;;;8.00;99.90;;;;;;5096977;28;20458;-77
2023/04/02 05:43:54;;;;;;;0.50;0.40;;;8.00;99.90;;;;;;5101609;28;20463;-78
2023/04/02 05:46:27;;;;;;;0.50;0.30;;;8.10;99.90;;;;;;5107065;28;20441;-77
2023/04/02 05:48:57;;;;;;;0.57;0.50;;;8.10;99.90;;;;;;5106887;28;20454;-80
2023/04/02 05:51:31;;;;;;;0.40;0.30;;;8.10;99.90;;;;;;5094948;28;20885;-77
2023/04/02 05:54:03;;;;;;;0.40;0.30;;;8.20;99.90;;;;;;5103090;28;20518;-77
2023/04/02 05:56:35;;;;;;;0.90;0.40;;;8.20;99.90;;;;;;5102283;28;21297;-79
2023/04/02 05:59:07;;;;;;;1.67;0.40;;;8.20;99.90;;;;;;5099992;28;20461;-78
2023/04/02 06:01:40;;;;;;;0.60;0.40;;;8.20;99.90;;;;;;5104958;28;20562;-78
2023/04/02 06:04:18;;;;;;;0.67;0.50;;;8.20;99.90;;;;;;5106733;28;20495;-78
2023/04/02 06:06:58;;;;;;;0.50;0.30;;;8.20;99.90;;;;;;5103458;28;20458;-78
2023/04/02 06:09:36;;;;;;;0.60;0.40;;;8.30;99.90;;;;;;5099152;28;20459;-77
2023/04/02 06:12:18;;;;;;;0.40;0.30;;;8.30;99.90;;;;;;5102570;28;20983;-82
2023/04/02 06:14:45;;;;;;;1.13;0.30;;;8.40;99.90;;;;;;5096405;28;20490;-78
2023/04/02 06:17:14;;;;;;;0.83;0.30;;;8.40;99.90;;;;;;5107379;28;20533;-78
2023/04/02 06:19:41;;;;;;;0.40;0.30;;;8.40;99.90;;;;;;5096304;28;20520;-82
2023/04/02 06:22:24;;;;;;;1.53;0.40;;;8.30;99.90;;;;;;5103848;27;20473;-77
2023/04/02 06:24:55;;;;;;;0.50;0.30;;;8.30;99.90;;;;;;5100998;28;20523;-77
2023/04/02 06:27:25;;;;;;;0.30;0.30;;;8.30;99.90;;;;;;5091877;28;20492;-77
2023/04/02 06:29:55;;;;;;;0.60;0.30;;;8.40;99.90;;;;;;5101756;28;20552;-79
2023/04/02 06:32:24;;;;;;;2.50;0.40;;;8.40;99.90;;;;;;5106710;28;20447;-79
2023/04/02 06:34:51;;;;;;;0.40;0.30;;;8.40;99.90;;;;;;5097371;28;20514;-78
2023/04/02 06:37:27;;;;;;;0.40;0.30;;;8.40;99.90;;;;;;5101028;28;20519;-77
2023/04/02 06:39:55;;;;;;;0.70;0.40;;;8.30;99.90;;;;;;5092153;28;20490;-78
2023/04/02 06:42:26;;;;;;;0.40;0.30;;;8.30;99.90;;;;;;5095278;28;21194;-77
2023/04/02 06:44:54;;;;;;;0.40;0.30;;;8.30;99.90;;;;;;5095633;28;20508;-80
2023/04/02 06:47:29;;;;;;;0.40;0.30;;;8.30;99.90;;;;;;5098321;28;20543;-78
2023/04/02 06:50:02;;;;;;;0.73;0.30;;;8.30;99.90;;;;;;5092949;28;21044;-77
2023/04/02 06:52:35;;;;;;;1.60;0.40;;;8.30;99.90;;;;;;5097181;28;20474;-77
2023/04/02 06:55:17;;;;;;;0.40;0.30;;;8.30;99.90;;;;;;5095887;28;21130;-77
2023/04/02 06:57:44;;;;;;;1.23;0.30;;;8.30;99.90;;;;;;5094732;28;20490;-76
2023/04/02 07:00:23;;;;;;;0.67;0.40;;;8.40;99.90;;;;;;5095737;28;20448;-79
2023/04/02 07:02:52;;;;;;;3.13;0.30;;;8.40;99.90;;;;;;5104766;28;20511;-77
2023/04/02 07:05:19;;;;;;;0.50;0.40;;;8.50;99.90;;;;;;5097924;28;20542;-76
2023/04/02 07:07:47;;;;;;;0.40;0.30;;;8.50;99.90;;;;;;5100402;28;20527;-78
2023/04/02 07:10:14;;;;;;;0.40;0.30;;;8.60;99.90;;;;;;5104697;28;20527;-79
2023/04/02 07:12:41;;;;;;;0.50;0.40;;;8.70;99.90;;;;;;5105623;28;20523;-80
2023/04/02 07:15:14;;;;;;;0.40;0.30;;;8.70;99.90;;;;;;5103038;28;20490;-78
2023/04/02 07:17:41;;;;;;;1.13;0.40;;;8.80;99.90;;;;;;5106027;28;20454;-80
2023/04/02 07:20:24;;;;;;;0.40;0.30;;;8.90;99.90;;;;;;5106346;28;20954;-78
2023/04/02 07:22:52;;;;;;;0.50;0.30;;;8.80;99.90;;;;;;5106467;28;20454;-77
2023/04/02 07:25:19;;;;;;;5.70;0.70;;;8.70;99.90;;;;;;5100578;28;20466;-78
2023/04/02 07:27:46;;;;;;;0.50;0.40;;;8.70;99.90;;;;;;5100375;28;20486;-78
2023/04/02 07:30:15;;;;;;;1.93;0.40;;;8.70;99.90;;;;;;5099975;28;20455;-78
2023/04/02 07:32:42;;;;;;;0.50;0.30;;;8.60;99.90;;;;;;5094464;28;21035;-77
2023/04/02 07:35:10;;;;;;;1.00;0.40;;;8.60;99.90;;;;;;5101482;28;20568;-77
2023/04/02 07:37:37;;;;;;;1.17;0.50;;;8.60;99.90;;;;;;5103974;28;20545;-77
2023/04/02 07:40:07;;;;;;;0.50;0.30;;;8.60;99.90;;;;;;5102724;28;20466;-78
2023/04/02 07:42:35;;;;;;;0.40;0.30;;;8.60;99.90;;;;;;5103347;28;20442;-79
2023/04/02 07:45:02;;;;;;;1.00;0.30;;;8.60;99.90;;;;;;5099774;28;20466;-78
2023/04/02 07:47:29;;;;;;;0.50;0.40;;;8.70;99.90;;;;;;5100765;28;20462;-76
2023/04/02 07:49:56;;;;;;;0.40;0.30;;;8.80;99.90;;;;;;5091830;28;21238;-77
2023/04/02 07:52:23;;;;;;;0.50;0.40;;;8.80;99.90;;;;;;5103213;28;20515;-80
2023/04/02 07:54:50;;;;;;;1.47;0.40;;;8.70;99.90;;;;;;5099037;28;20603;-77
2023/04/02 07:57:19;;;;;;;1.33;0.50;;;8.80;99.90;;;;;;5096918;28;20517;-78
2023/04/02 07:59:47;;;;;;;2.97;0.50;;;8.70;99.90;;;;;;5101511;28;20487;-80
2023/04/02 08:02:20;;;;;;;1.20;0.50;;;8.90;99.90;;;;;;5099815;28;21022;-76
2023/04/02 08:04:48;;;;;;;0.50;0.50;;;8.90;99.90;;;;;;5103466;28;20458;-75
2023/04/02 08:07:15;;;;;;;1.53;0.40;;;8.90;99.90;;;;;;5104924;28;20457;-78
2023/04/02 08:09:42;;;;;;;1.27;0.50;;;8.80;99.90;;;;;;5098863;28;21138;-76
2023/04/02 08:12:11;;;;;;;0.73;0.50;;;8.80;99.90;;;;;;5098145;28;20493;-75
2023/04/02 08:14:40;;;;;;;0.87;0.60;;;8.80;99.90;;;;;;5109392;28;20473;-74
2023/04/02 08:17:07;;;;;;;3.23;1.40;;;8.70;99.90;;;;;;5105036;28;20939;-78
2023/04/02 08:19:34;;;;;;;1.80;1.67;;;8.80;99.90;;;;;;5096387;28;20950;-77
2023/04/02 08:22:01;;;;;;;1.67;1.30;;;8.80;99.90;;;;;;5106276;28;20466;-78
2023/04/02 08:24:29;;;;;;;4.43;2.83;;;8.70;99.90;;;;;;5104774;28;20991;-79
2023/04/02 08:26:56;;;;;;;1.70;1.10;;;8.80;99.90;;;;;;5098172;28;21431;-78
2023/04/02 08:29:23;;;;;;;2.00;1.50;;;8.80;99.90;;;;;;5104605;28;20493;-78
2023/04/02 08:31:51;;;;;;;0.70;0.40;;;8.80;99.90;;;;;;5101011;28;20464;-79
2023/04/02 08:34:18;;;;;;;2.10;1.57;;;8.80;99.90;;;;;;5102957;28;20487;-80
2023/04/02 08:36:45;;;;;;;1.33;1.23;;;9.00;99.90;;;;;;5104897;28;20446;-75
2023/04/02 08:39:12;;;;;;;0.70;0.50;;;8.90;99.90;;;;;;5106038;28;20458;-75
2023/04/02 08:41:45;;;;;;;0.40;0.40;;;8.90;99.90;;;;;;5100425;28;20447;-77
2023/04/02 08:44:27;;;;;;;1.23;0.80;;;8.80;99.90;;;;;;5102097;28;20507;-78
2023/04/02 08:47:01;;;;;;;0.60;0.47;;;8.90;99.90;;;;;;5100900;28;20529;-79
2023/04/02 08:49:32;;;;;;;0.70;0.70;;;9.00;99.90;;;;;;5107612;28;20458;-77
2023/04/02 08:52:00;;;;;;;0.50;0.50;;;9.10;99.90;;;;;;5108232;28;20550;-77
2023/04/02 08:54:29;;;;;;;0.90;0.50;;;8.90;99.90;;;;;;5095470;28;20486;-78
2023/04/02 08:57:00;;;;;;;0.50;0.50;;;8.70;99.90;;;;;;5102895;28;20561;-79
2023/04/02 08:59:33;;;;;;;0.50;0.50;;;8.70;99.90;;;;;;5103027;28;20541;-78
2023/04/02 09:02:15;;;;;;;1.90;0.40;;;8.70;99.90;;;;;;5097491;28;20485;-77
2023/04/02 09:04:42;;;;;;;0.50;0.40;;;8.70;99.90;;;;;;5104905;28;20457;-78
2023/04/02 09:07:13;;;;;;;1.07;0.40;;;8.70;99.90;;;;;;5107149;28;20523;-78
2023/04/02 09:09:40;;;;;;;0.50;0.40;;;8.90;99.90;;;;;;5108272;28;20472;-78
2023/04/02 09:12:15;;;;;;;0.40;0.30;;;9.20;99.90;;;;;;5103869;28;20519;-79
2023/04/02 09:14:45;;;;;;;0.67;0.47;;;9.30;99.90;;;;;;5101176;28;20481;-78
2023/04/02 09:17:18;;;;;;;0.67;0.50;;;9.30;99.90;;;;;;5110937;28;20463;-79
2023/04/02 09:19:53;;;;;;;2.10;0.60;;;9.40;99.90;;;;;;5103830;28;20455;-78
2023/04/02 09:22:23;;;;;;;0.60;0.40;;;9.30;99.90;;;;;;5100349;28;20446;-77
2023/04/02 09:24:52;;;;;;;0.40;0.30;;;9.30;99.90;;;;;;5106765;28;20457;-78
2023/04/02 09:27:21;;;;;;;0.40;0.30;;;9.10;99.90;;;;;;5106147;28;20840;-76
2023/04/02 09:29:50;;;;;;;0.40;0.33;;;8.90;99.90;;;;;;5095157;28;20470;-77
2023/04/02 09:32:49;;;;;;;0.40;0.40;;;8.80;99.90;;;;;;5085213;27;20463;-78
2023/04/02 09:35:18;;;;;;;0.57;0.40;;;8.50;99.90;;;;;;5096656;28;20535;-78
2023/04/02 09:37:46;;;;;;;3.20;2.27;;;8.50;99.90;;;;;;5103773;28;20454;-78
2023/04/02 09:40:25;;;;;;;0.97;0.60;;;8.50;99.90;;;;;;5106346;28;21073;-78
2023/04/02 09:43:04;;;;;;;1.00;0.50;;;8.40;99.90;;;;;;5104009;28;21033;-78
2023/04/02 09:45:31;;;;;;;1.33;0.40;;;8.30;99.90;;;;;;5104087;28;20518;-78
2023/04/02 09:47:59;;;;;;;0.50;0.40;;;8.20;99.90;;;;;;5101350;28;20459;-78
2023/04/02 09:50:29;;;;;;;0.50;0.50;;;8.20;99.90;;;;;;5105904;28;20498;-78
2023/04/02 09:52:56;;;;;;;1.30;0.80;;;8.20;99.90;;;;;;5103211;28;20446;-80
2023/04/02 09:55:27;;;;;;;1.17;0.87;;;8.30;99.90;;;;;;5103352;28;20482;-78
2023/04/02 09:58:12;;;;;;;0.50;0.37;;;8.20;99.90;;;;;;5103815;28;20458;-81
2023/04/02 10:00:40;;;;;;;0.50;0.40;;;8.20;99.90;;;;;;5106489;28;20450;-78
2023/04/02 10:03:26;;;;;;;1.00;0.40;;;8.20;99.90;;;;;;5105737;28;20490;-77
2023/04/02 10:06:07;;;;;;;0.50;0.40;;;8.00;99.90;;;;;;5096264;28;20467;-78
2023/04/02 10:08:35;;;;;;;0.40;0.40;;;8.10;99.90;;;;;;5097414;28;20455;-78
2023/04/02 10:11:06;;;;;;;0.50;0.40;;;8.10;99.90;;;;;;5101137;28;20455;-78
2023/04/02 10:13:40;;;;;;;0.83;0.30;;;8.10;99.90;;;;;;5097868;28;20455;-78
2023/04/02 10:16:12;;;;;;;0.93;0.40;;;8.00;99.90;;;;;;5101536;28;20579;-80
2023/04/02 10:18:47;;;;;;;0.40;0.40;;;8.00;99.90;;;;;;5100633;28;20527;-78
2023/04/02 10:21:18;;;;;;;0.43;0.40;;;8.00;99.90;;;;;;5103177;28;20461;-78
2023/04/02 10:23:45;;;;;;;3.50;0.50;;;8.00;99.90;;;;;;5101812;28;20469;-77
2023/04/02 10:26:27;;;;;;;0.60;0.40;;;8.00;99.90;;;;;;5099977;28;20559;-77
2023/04/02 10:29:05;;;;;;;1.73;0.53;;;7.90;99.90;;;;;;5102938;28;20438;-81
2023/04/02 10:31:40;;;;;;;1.03;0.53;;;8.00;99.90;;;;;;5106959;28;20470;-80
2023/04/02 10:34:16;;;;;;;0.50;0.50;;;7.90;99.90;;;;;;5109507;28;20480;-78
2023/04/02 10:36:50;;;;;;;0.40;0.30;;;7.90;99.90;;;;;;5095500;28;20571;-80
2023/04/02 10:39:23;;;;;;;0.60;0.50;;;7.90;99.90;;;;;;5106629;28;20511;-78
2023/04/02 10:41:58;;;;;;;0.60;0.50;;;8.00;99.90;;;;;;5097406;28;20463;-78
2023/04/02 10:44:43;;;;;;;1.87;0.47;;;8.10;99.90;;;;;;5105349;28;20962;-79
2023/04/02 10:47:22;;;;;;;1.20;0.50;;;8.20;99.90;;;;;;5102321;27;20935;-78
2023/04/02 10:50:01;;;;;;;0.80;0.43;;;8.20;99.90;;;;;;5101981;28;20463;-79
2023/04/02 10:52:31;;;;;;;2.00;1.53;;;8.20;99.90;;;;;;5096969;28;20462;-77
2023/04/02 10:55:02;;;;;;;0.50;0.50;;;8.30;99.90;;;;;;5096920;28;20454;-78
2023/04/02 10:57:37;;;;;;;2.77;1.10;;;8.40;99.90;;;;;;5099332;28;20511;-79
2023/04/02 11:00:21;;;;;;;0.60;0.50;;;8.40;99.90;;;;;;5096960;28;20444;-80
2023/04/02 11:02:54;;;;;;;0.50;0.50;;;8.50;99.90;;;;;;5101539;28;20488;-78
2023/04/02 11:05:31;;;;;;;0.50;0.50;;;8.40;99.90;;;;;;5102636;28;20474;-77
2023/04/02 11:08:02;;;;;;;0.60;0.40;;;8.50;99.90;;;;;;5105956;28;20462;-76
2023/04/02 11:10:33;;;;;;;1.03;0.50;;;8.50;99.90;;;;;;5100074;28;20467;-77
2023/04/02 11:13:03;;;;;;;0.50;0.50;;;8.70;99.90;;;;;;5101935;28;20470;-79
2023/04/02 11:15:31;;;;;;;0.60;0.50;;;8.90;99.90;;;;;;5102340;28;20483;-78
2023/04/02 11:17:58;;;;;;;0.47;0.47;;;8.90;99.90;;;;;;5099860;28;20517;-79
2023/04/02 11:20:56;;;;;;;1.47;0.40;;;9.10;99.90;;;;;;5103662;28;20535;-76
2023/04/02 11:23:26;;;;;;;0.60;0.50;;;9.10;99.90;;;;;;5100762;28;20459;-78
2023/04/02 11:26:46;;;;;;;2.63;0.70;;;9.40;99.90;;;;;;5106335;28;20459;-76
2023/04/02 11:29:23;;;;;;;0.60;0.50;;;9.20;99.90;;;;;;5098070;28;20446;-78
2023/04/02 11:32:07;;;;;;;0.90;0.40;;;9.20;99.90;;;;;;5099917;28;20489;-77
2023/04/02 11:35:25;;;;;;;0.70;0.40;;;9.00;99.90;;;;;;5103155;28;20523;-77
2023/04/02 11:37:55;;;;;;;0.40;0.30;;;8.90;99.90;;;;;;5021948;28;20442;-76
2023/04/02 11:40:45;;;;;;;0.40;0.40;;;8.90;99.90;;;;;;5020438;28;21203;-77
2023/04/02 11:43:49;;;;;;;0.40;0.30;;;9.00;99.90;;;;;;5073680;28;20466;-76
2023/04/02 11:46:45;;;;;;;0.40;0.30;;;8.90;99.90;;;;;;5073630;28;20505;-76
2023/04/02 11:49:35;;;;;;;0.40;0.30;;;8.80;99.90;;;;;;5103623;28;20442;-77
2023/04/02 11:52:04;;;;;;;0.40;0.20;;;8.70;99.90;;;;;;5102067;28;20454;-76
2023/04/02 11:54:37;;;;;;;0.40;0.20;;;8.70;99.90;;;;;;5101135;28;20940;-77
2023/04/02 11:57:12;;;;;;;0.40;0.20;;;8.60;99.90;;;;;;5096003;28;20482;-78
2023/04/02 11:59:49;;;;;;;0.30;0.20;;;8.70;99.90;;;;;;5097321;28;20990;-77
2023/04/02 12:02:23;;;;;;;0.30;0.20;;;8.80;99.90;;;;;;5096556;28;20459;-77
2023/04/02 12:05:19;;;;;;;0.60;0.30;;;8.90;99.90;;;;;;5101818;28;20847;-76
2023/04/02 12:08:06;;;;;;;0.30;0.20;;;8.90;99.90;;;;;;5095117;28;20466;-77
2023/04/02 12:10:52;;;;;;;0.30;0.20;;;9.00;99.90;;;;;;5098877;28;20462;-76
2023/04/02 12:13:20;;;;;;;0.30;0.20;;;8.80;99.90;;;;;;5107200;28;20538;-77
2023/04/02 12:15:48;;;;;;;0.30;0.20;;;8.70;99.90;;;;;;5108881;28;20558;-77
2023/04/02 12:18:19;;;;;;;0.37;0.20;;;8.70;99.90;;;;;;5098198;28;21255;-76
2023/04/02 12:20:49;;;;;;;0.30;0.20;;;8.70;99.90;;;;;;5101639;28;20547;-76
2023/04/02 12:23:20;;;;;;;0.40;0.20;;;8.60;99.90;;;;;;5109325;28;20823;-76
2023/04/02 12:25:58;;;;;;;0.40;0.20;;;8.50;99.90;;;;;;5109489;28;20515;-78
2023/04/02 12:28:28;;;;;;;0.30;0.20;;;8.50;99.90;;;;;;5104715;28;20975;-76
2023/04/02 12:31:04;;;;;;;0.40;0.20;;;8.30;99.90;;;;;;5109063;28;20457;-76
2023/04/02 12:33:36;;;;;;;0.37;0.20;;;8.30;99.90;;;;;;5097847;28;20518;-76
2023/04/02 12:36:05;;;;;;;0.30;0.20;;;8.50;99.90;;;;;;5108659;28;20490;-77
2023/04/02 12:38:35;;;;;;;0.40;0.23;;;8.60;99.90;;;;;;5113095;27;20469;-77
2023/04/02 12:41:06;;;;;;;0.30;0.20;;;8.60;99.90;;;;;;5107252;28;20470;-76
2023/04/02 12:43:35;;;;;;;0.40;0.30;;;8.50;99.90;;;;;;5101531;28;20458;-76
2023/04/02 12:46:04;;;;;;;0.40;0.30;;;8.50;99.90;;;;;;5109632;28;20462;-77
2023/04/02 12:48:33;;;;;;;0.40;0.20;;;8.50;99.90;;;;;;5104278;28;20458;-76
2023/04/02 12:51:01;;;;;;;1.03;0.30;;;8.50;99.90;;;;;;5105727;28;20466;-76
2023/04/02 12:53:32;;;;;;;0.37;0.20;;;8.40;99.90;;;;;;5109051;28;20454;-78
2023/04/02 12:55:59;;;;;;;0.80;0.30;;;8.40;99.90;;;;;;5094044;28;20482;-78
2023/04/02 12:58:35;;;;;;;0.43;0.30;;;8.30;99.90;;;;;;5103725;28;20452;-75
2023/04/02 13:01:18;;;;;;;0.30;0.20;;;8.50;99.90;;;;;;5110830;28;20519;-76
2023/04/02 13:03:59;;;;;;;0.40;0.30;;;8.70;99.90;;;;;;5111257;28;20456;-78
2023/04/02 13:06:26;;;;;;;0.40;0.23;;;8.50;99.90;;;;;;5109259;28;20499;-77
2023/04/02 13:08:54;;;;;;;0.97;0.27;;;8.50;99.90;;;;;;5109696;28;20514;-78
2023/04/02 13:11:22;;;;;;;0.40;0.20;;;8.60;99.90;;;;;;5106358;28;20491;-76
2023/04/02 13:13:50;;;;;;;0.40;0.30;;;8.80;99.90;;;;;;5108486;28;20541;-77
2023/04/02 13:16:27;;;;;;;1.60;0.80;;;8.70;99.90;;;;;;5109600;28;20573;-77
2023/04/02 13:19:11;;;;;;;0.30;0.20;;;8.80;99.90;;;;;;5094690;28;20558;-77
2023/04/02 13:21:38;;;;;;;0.40;0.30;;;8.80;99.90;;;;;;5104775;28;20480;-77
2023/04/02 13:24:15;;;;;;;0.30;0.20;;;8.60;99.90;;;;;;5101088;28;20523;-76
2023/04/02 13:26:42;;;;;;;0.73;0.53;;;8.50;99.90;;;;;;5107993;28;20526;-76
2023/04/02 13:29:23;;;;;;;0.63;0.50;;;8.60;99.90;;;;;;5106373;28;21042;-77